Meteo Giornale » Osservazioni meteo Iran » Kerman
ore: 10:00 - Osservazioni Meteo Kerman
Lat. 30° 15' N Lon. 56° 58' E Alt. 1748 metri s.l.m.
30 °C
Sereno
Temp. 24 Ore
15 °C
32 °C
Nord-Ovest
7.4 Km/h
Dew point 3 °C
Umidità 17 %
Visibilità 10 Km
Il sole sorge alle ore 05:18
Il sole tramonta alle ore 18:05
| Data e Ora | Cielo e Fenomeni | T °C | DP °C | Um. % | Pres. hPa | Vis. km | Vento km/h | |
|---|---|---|---|---|---|---|---|---|
| Oggi h: 10:00 | Sereno | 30 | 3 | 17 | 1019 | 10 | NO 7.4 | |
| Oggi h: 09:30 | Sereno | 28 | 3 | 20 | 1019 | 10 | N/NO 7.4 | |
| Oggi h: 09:00 | Sereno | 29 | 2 | 17 | 1019 | 10 | N 3.7 | |
| Oggi h: 08:30 | Sereno | 24 | -1 | 19 | 1019 | 10 | E/SE 7.4 | |
| Oggi h: 07:30 | Sereno | 22 | -2 | 19 | 1019 | 10 | E 7.4 | |
| Oggi h: 06:30 | Sereno | 18 | -1 | 27 | 1019 | 10 | N 0 | |
| Oggi h: 05:30 | Sereno | 16 | -1 | 31 | 1018 | 10 | E/SE 7.4 | |
| Oggi h: 04:30 | Sereno | 18 | -1 | 27 | 1018 | 10 | E/SE 7.4 | |
| Oggi h: 03:30 | Sereno | 15 | -5 | 24 | 1018 | 10 | E/SE 11.1 | |
| Oggi h: 02:30 | Sereno | 17 | -3 | 25 | 1017 | 10 | S/SO 7.4 | |
| Oggi h: 01:30 | Sereno | 18 | -2 | 25 | 1017 | 10 | E/SE 7.4 | |
| Oggi h: 00:30 | Sereno | 20 | -2 | 22 | 1018 | 10 | N 0 | |
| Ieri h: 23:30 | Sereno | 21 | 0 | 24 | 1018 | 10 | N 0 | |
| Ieri h: 22:30 | Sereno | 22 | -1 | 21 | 1019 | 10 | N 0 | |
| Ieri h: 21:30 | Sereno | 23 | -1 | 20 | 1019 | 10 | N 7.4 | |
| Ieri h: 20:30 | Sereno | 25 | -1 | 17 | 1018 | 10 | N 7.4 | |
| Ieri h: 19:30 | Sereno | 27 | -1 | 15 | 1018 | 10 | N/NO 18.5 | |
| Ieri h: 18:30 | Sereno | 29 | -1 | 14 | 1017 | 10 | N/NO 18.5 | |
| Ieri h: 17:30 | Sereno | 31 | -1 | 12 | 1017 | 10 | N 25.9 | |
| Ieri h: 16:30 | Sereno | 32 | -1 | 11 | 1017 | 10 | N/NO 25.9 | |
| Ieri h: 15:30 | Sereno | 32 | -3 | 10 | 1016 | 10 | N 25.9 | |
| Ieri h: 14:30 | Sereno | 32 | -3 | 10 | 1017 | 10 | N/NO 29.6 | |
| Ieri h: 13:30 | Sereno | 32 | -3 | 10 | 1017 | 10 | N/NO 31.5 | |
| Ieri h: 12:30 | Sereno | 32 | -1 | 11 | 1018 | 10 | N/NO 29.6 | |
| Ieri h: 12:00 | Sereno | 32 | -2 | 11 | 1019 | 10 | N/NO 22.2 | |
| Ieri h: 11:30 | Sereno | 31 | -2 | 11 | 1019 | 10 | N/NO 22.2 | |



